createdAt,value
2023-01-17T00:02:24.313Z,8.45
2023-01-17T00:05:11.398Z,8.44
2023-01-17T00:07:58.212Z,8.37
2023-01-17T00:10:27.421Z,8.42
2023-01-17T00:13:02.651Z,8.45
2023-01-17T00:15:31.638Z,8.52
2023-01-17T00:17:59.582Z,8.58
2023-01-17T00:20:47.668Z,8.61
2023-01-17T00:23:36.202Z,8.66
2023-01-17T00:26:06.764Z,8.69
2023-01-17T00:28:36.002Z,8.74
2023-01-17T00:31:05.431Z,8.70
2023-01-17T00:33:33.563Z,8.63
2023-01-17T00:36:02.691Z,8.65
2023-01-17T00:38:32.419Z,8.64
2023-01-17T00:41:10.886Z,8.65
2023-01-17T00:43:58.132Z,8.59
2023-01-17T00:46:44.682Z,8.78
2023-01-17T00:49:31.436Z,8.95
2023-01-17T00:52:17.954Z,8.87
2023-01-17T00:55:04.617Z,8.89
2023-01-17T00:57:51.737Z,8.86
2023-01-17T01:00:38.858Z,8.81
2023-01-17T01:03:28.734Z,8.87
2023-01-17T01:06:15.893Z,8.86
2023-01-17T01:09:02.918Z,8.90
2023-01-17T01:11:49.717Z,8.95
2023-01-17T01:14:36.518Z,8.96
2023-01-17T01:17:23.528Z,8.94
2023-01-17T01:20:10.313Z,9.07
2023-01-17T01:22:56.844Z,9.04
2023-01-17T01:25:43.348Z,9.06
2023-01-17T01:28:31.086Z,8.98
2023-01-17T01:31:18.613Z,8.90
2023-01-17T01:33:46.623Z,8.95
2023-01-17T01:36:14.751Z,8.93
2023-01-17T01:38:42.978Z,8.84
2023-01-17T01:41:10.920Z,8.86
2023-01-17T01:43:57.067Z,8.89
2023-01-17T01:46:39.734Z,8.93
2023-01-17T01:49:22.103Z,8.88
2023-01-17T01:51:59.126Z,8.87
2023-01-17T01:54:31.471Z,8.45
2023-01-17T01:57:01.672Z,8.16
2023-01-17T01:59:31.097Z,7.91
2023-01-17T02:01:59.064Z,7.94
2023-01-17T02:04:27.661Z,8.02
2023-01-17T02:07:21.836Z,8.12
2023-01-17T02:09:50.329Z,8.26
2023-01-17T02:12:20.204Z,8.38
2023-01-17T02:14:48.168Z,8.42
2023-01-17T02:17:35.177Z,8.46
2023-01-17T02:20:28.683Z,8.31
2023-01-17T02:23:15.393Z,8.07
2023-01-17T02:25:54.817Z,7.87
2023-01-17T02:28:32.210Z,7.82
2023-01-17T02:31:23.318Z,7.60
2023-01-17T02:33:55.669Z,7.23
2023-01-17T02:36:32.648Z,7.10
2023-01-17T02:39:05.512Z,6.98
2023-01-17T02:41:39.128Z,7.02
2023-01-17T02:44:11.286Z,7.11
2023-01-17T02:46:44.633Z,7.24
2023-01-17T02:49:13.166Z,7.47
2023-01-17T02:51:59.911Z,7.77
2023-01-17T02:54:43.288Z,8.11
2023-01-17T02:57:20.485Z,8.40
2023-01-17T02:59:51.421Z,8.62
2023-01-17T03:02:38.312Z,8.74
2023-01-17T03:05:12.515Z,8.98
2023-01-17T03:07:43.001Z,9.18
2023-01-17T03:10:11.863Z,9.32
2023-01-17T03:12:40.655Z,9.49
2023-01-17T03:15:10.149Z,9.58
2023-01-17T03:17:39.358Z,9.31
2023-01-17T03:20:07.645Z,9.03
2023-01-17T03:22:35.570Z,9.00
2023-01-17T03:25:03.588Z,8.97
2023-01-17T03:27:31.733Z,8.49
2023-01-17T03:30:00.015Z,8.21
2023-01-17T03:32:28.516Z,7.92
2023-01-17T03:34:56.805Z,8.03
2023-01-17T03:37:25.150Z,8.19
2023-01-17T03:39:53.228Z,8.36
2023-01-17T03:42:21.397Z,8.54
2023-01-17T03:44:49.360Z,8.52
2023-01-17T03:47:17.339Z,8.48
2023-01-17T03:49:45.275Z,8.33
2023-01-17T03:52:13.469Z,8.36
2023-01-17T03:54:41.421Z,8.36
2023-01-17T03:57:10.666Z,8.33
2023-01-17T03:59:38.607Z,8.34
2023-01-17T04:02:06.699Z,8.34
2023-01-17T04:04:34.741Z,8.28
2023-01-17T04:07:02.725Z,8.15
2023-01-17T04:09:34.253Z,7.91
2023-01-17T04:12:02.829Z,7.74
2023-01-17T04:14:31.016Z,7.53
2023-01-17T04:17:00.119Z,7.40
2023-01-17T04:19:28.204Z,7.40
2023-01-17T04:21:56.258Z,7.47
2023-01-17T04:24:24.734Z,7.54
2023-01-17T04:26:52.666Z,7.59
2023-01-17T04:29:20.802Z,7.66
2023-01-17T04:31:48.901Z,7.72
2023-01-17T04:34:17.621Z,7.73
2023-01-17T04:36:45.522Z,7.69
2023-01-17T04:39:13.453Z,7.76
2023-01-17T04:41:41.536Z,7.89
2023-01-17T04:44:09.692Z,8.07
2023-01-17T04:46:37.668Z,8.23
2023-01-17T04:49:05.739Z,8.16
2023-01-17T04:51:34.078Z,7.57
2023-01-17T04:54:01.971Z,7.26
2023-01-17T04:56:29.962Z,6.92
2023-01-17T04:58:58.532Z,7.04
2023-01-17T05:01:27.129Z,7.22
2023-01-17T05:03:55.186Z,7.44
2023-01-17T05:06:23.253Z,7.67
2023-01-17T05:08:51.338Z,7.80
2023-01-17T05:11:20.538Z,7.92
2023-01-17T05:13:49.318Z,8.08
2023-01-17T05:16:18.385Z,7.95
2023-01-17T05:18:46.893Z,7.74
2023-01-17T05:21:14.955Z,7.43
2023-01-17T05:23:43.338Z,7.46
2023-01-17T05:26:11.516Z,7.50
2023-01-17T05:28:39.720Z,7.24
2023-01-17T05:31:07.908Z,6.87
2023-01-17T05:33:35.931Z,6.87
2023-01-17T05:36:04.191Z,6.97
2023-01-17T05:38:32.317Z,7.16
2023-01-17T05:41:01.196Z,7.44
2023-01-17T05:43:29.237Z,7.65
2023-01-17T05:45:57.257Z,7.78
2023-01-17T05:48:25.378Z,7.93
2023-01-17T05:50:53.343Z,8.01
2023-01-17T05:53:21.536Z,8.01
2023-01-17T05:55:49.904Z,7.97
2023-01-17T05:58:19.299Z,7.93
2023-01-17T06:00:47.801Z,7.86
2023-01-17T06:03:16.359Z,7.80
2023-01-17T06:05:45.163Z,7.80
2023-01-17T06:08:13.721Z,7.77
2023-01-17T06:10:41.673Z,7.71
2023-01-17T06:13:14.447Z,7.74
2023-01-17T06:15:43.468Z,7.86
2023-01-17T06:18:13.203Z,7.93
2023-01-17T06:20:41.547Z,7.83
2023-01-17T06:23:13.848Z,7.96
2023-01-17T06:25:45.737Z,8.08
2023-01-17T06:28:14.945Z,8.21
2023-01-17T06:30:44.011Z,8.22
2023-01-17T06:33:12.914Z,7.88
2023-01-17T06:35:47.376Z,7.09
2023-01-17T06:38:15.673Z,7.14
2023-01-17T06:40:43.823Z,7.03
2023-01-17T06:43:11.903Z,6.61
2023-01-17T06:45:40.175Z,6.47
2023-01-17T06:48:08.255Z,6.53
2023-01-17T06:50:36.439Z,6.50
2023-01-17T06:53:05.722Z,6.25
2023-01-17T06:55:34.305Z,6.47
2023-01-17T06:58:03.088Z,6.92
2023-01-17T07:00:35.170Z,7.28
2023-01-17T07:03:03.427Z,7.71
2023-01-17T07:05:31.386Z,8.16
2023-01-17T07:07:59.776Z,8.26
2023-01-17T07:10:28.042Z,7.51
2023-01-17T07:12:58.779Z,7.24
2023-01-17T07:15:26.659Z,6.54
2023-01-17T07:17:54.650Z,6.48
2023-01-17T07:20:22.614Z,6.59
2023-01-17T07:22:50.651Z,6.67
2023-01-17T07:25:20.260Z,6.88
2023-01-17T07:27:48.732Z,7.13
2023-01-17T07:30:17.016Z,7.49
2023-01-17T07:32:44.914Z,7.77
2023-01-17T07:35:12.946Z,8.07
2023-01-17T07:37:46.820Z,8.30
2023-01-17T07:40:15.534Z,8.50
2023-01-17T07:42:44.434Z,8.75
2023-01-17T07:45:13.556Z,8.93
2023-01-17T07:47:41.727Z,9.16
2023-01-17T07:50:10.277Z,9.32
2023-01-17T07:52:38.195Z,9.46
2023-01-17T07:55:09.016Z,9.51
2023-01-17T07:57:37.252Z,9.53
2023-01-17T08:00:05.907Z,9.67
2023-01-17T08:02:40.277Z,9.88
2023-01-17T08:05:08.847Z,9.77
2023-01-17T08:07:36.805Z,9.16
2023-01-17T08:10:06.828Z,9.18
2023-01-17T08:12:36.159Z,9.32
2023-01-17T08:15:04.707Z,9.39
2023-01-17T08:17:32.651Z,9.47
2023-01-17T08:20:00.556Z,9.55
2023-01-17T08:22:30.467Z,9.75
2023-01-17T08:24:58.416Z,9.84
2023-01-17T08:27:28.462Z,9.45
2023-01-17T08:29:56.607Z,9.16
2023-01-17T08:32:24.524Z,8.98
2023-01-17T08:34:52.648Z,8.77
2023-01-17T08:37:20.639Z,8.83
2023-01-17T08:39:48.858Z,9.12
2023-01-17T08:42:17.428Z,9.46
2023-01-17T08:44:45.373Z,9.78
2023-01-17T08:47:13.375Z,9.99
2023-01-17T08:49:41.724Z,9.98
2023-01-17T08:52:09.747Z,9.91
2023-01-17T08:54:37.719Z,10.05
2023-01-17T08:57:05.971Z,10.26
2023-01-17T08:59:33.963Z,10.35
2023-01-17T09:02:06.935Z,10.16
2023-01-17T09:04:35.110Z,9.32
2023-01-17T09:07:07.545Z,8.72
2023-01-17T09:09:35.651Z,8.63
2023-01-17T09:12:03.769Z,8.44
2023-01-17T09:14:32.321Z,8.42
2023-01-17T09:17:00.896Z,8.41
2023-01-17T09:19:29.283Z,8.63
2023-01-17T09:21:58.308Z,8.65
2023-01-17T09:24:26.231Z,8.76
2023-01-17T09:26:54.315Z,8.88
2023-01-17T09:29:22.393Z,8.96
2023-01-17T09:31:50.483Z,9.05
2023-01-17T09:34:18.831Z,9.19
2023-01-17T09:36:47.039Z,9.20
2023-01-17T09:39:15.480Z,8.86
2023-01-17T09:41:47.173Z,8.50
2023-01-17T09:44:23.453Z,8.73
2023-01-17T09:46:53.027Z,9.08
2023-01-17T09:49:24.259Z,9.30
2023-01-17T09:51:53.600Z,9.58
2023-01-17T09:54:27.560Z,9.90
2023-01-17T09:57:01.818Z,10.05
2023-01-17T09:59:36.027Z,10.36
2023-01-17T10:02:24.390Z,10.18
2023-01-17T10:05:06.499Z,10.47
2023-01-17T10:07:46.894Z,10.70
2023-01-17T10:10:33.678Z,10.91
2023-01-17T10:13:20.620Z,11.24
2023-01-17T10:15:55.164Z,11.06
2023-01-17T10:18:37.657Z,10.80
2023-01-17T10:21:19.450Z,10.84
2023-01-17T10:24:09.015Z,11.13
2023-01-17T10:26:38.554Z,11.33
2023-01-17T10:29:12.748Z,11.52
2023-01-17T10:31:43.654Z,11.80
2023-01-17T10:34:14.934Z,12.12
2023-01-17T10:36:49.668Z,12.41
2023-01-17T10:39:20.525Z,12.03
2023-01-17T10:42:08.810Z,11.21
2023-01-17T10:44:42.802Z,11.03
2023-01-17T10:47:10.838Z,10.51
2023-01-17T10:49:40.459Z,10.42
2023-01-17T10:52:13.852Z,9.96
2023-01-17T10:54:44.538Z,9.75
2023-01-17T10:57:14.668Z,9.99
2023-01-17T10:59:44.195Z,10.31
2023-01-17T11:02:43.107Z,10.09
2023-01-17T11:05:25.566Z,10.38
2023-01-17T11:08:00.917Z,10.81
2023-01-17T11:10:42.492Z,11.09
2023-01-17T11:13:19.300Z,10.90
2023-01-17T11:15:49.711Z,10.51
2023-01-17T11:18:22.111Z,10.46
2023-01-17T11:20:50.172Z,10.76
2023-01-17T11:23:23.011Z,10.94
2023-01-17T11:25:58.737Z,10.99
2023-01-17T11:28:30.739Z,11.15
2023-01-17T11:31:07.721Z,11.39
2023-01-17T11:33:45.763Z,11.48
2023-01-17T11:36:18.601Z,11.51
2023-01-17T11:38:58.533Z,11.67
2023-01-17T11:41:28.327Z,11.50
2023-01-17T11:44:00.381Z,11.73
2023-01-17T11:46:29.714Z,11.97
2023-01-17T11:48:59.779Z,12.19
2023-01-17T11:51:33.034Z,12.63
2023-01-17T11:54:24.050Z,12.88
2023-01-17T11:56:57.756Z,12.90
2023-01-17T11:59:25.784Z,12.44
2023-01-17T12:02:05.987Z,11.09
2023-01-17T12:04:45.016Z,10.85
2023-01-17T12:07:22.249Z,11.06
2023-01-17T12:10:02.620Z,10.99
2023-01-17T12:12:52.251Z,11.23
2023-01-17T12:15:36.573Z,11.73
2023-01-17T12:18:24.738Z,12.02
2023-01-17T12:21:12.559Z,12.34
2023-01-17T12:23:43.643Z,12.60
2023-01-17T12:26:12.180Z,12.75
2023-01-17T12:28:59.697Z,12.91
2023-01-17T12:31:27.823Z,13.22
2023-01-17T12:33:55.948Z,13.46
2023-01-17T12:36:27.192Z,13.59
2023-01-17T12:38:56.727Z,13.80
2023-01-17T12:41:31.788Z,13.97
2023-01-17T12:44:00.880Z,14.12
2023-01-17T12:46:44.189Z,14.21
2023-01-17T12:49:30.974Z,14.28
2023-01-17T12:52:22.380Z,14.34
2023-01-17T12:54:59.271Z,14.41
2023-01-17T12:57:32.386Z,14.15
2023-01-17T13:00:10.354Z,13.76
2023-01-17T13:02:59.320Z,13.56
2023-01-17T13:05:38.284Z,13.42
2023-01-17T13:08:25.503Z,13.46
2023-01-17T13:10:56.398Z,13.43
2023-01-17T13:13:26.033Z,13.41
2023-01-17T13:16:00.282Z,13.18
2023-01-17T13:18:30.000Z,13.00
2023-01-17T13:21:13.405Z,13.20
2023-01-17T13:23:45.124Z,13.48
2023-01-17T13:26:33.561Z,13.60
2023-01-17T13:29:07.200Z,13.44
2023-01-17T13:31:53.795Z,12.58
2023-01-17T13:34:24.832Z,12.07
2023-01-17T13:37:02.606Z,11.84
2023-01-17T13:39:41.222Z,11.51
2023-01-17T13:42:18.003Z,11.63
2023-01-17T13:44:46.487Z,11.57
2023-01-17T13:47:18.561Z,11.41
2023-01-17T13:49:49.444Z,11.41
2023-01-17T13:52:20.305Z,11.35
2023-01-17T13:54:58.587Z,11.37
2023-01-17T13:57:29.374Z,11.48
2023-01-17T13:59:58.686Z,11.64
2023-01-17T14:02:32.669Z,11.91
2023-01-17T14:05:16.137Z,12.15
2023-01-17T14:07:47.847Z,12.34
2023-01-17T14:10:24.433Z,12.32
2023-01-17T14:12:52.449Z,11.94
2023-01-17T14:15:22.068Z,11.74
2023-01-17T14:17:51.890Z,11.87
2023-01-17T14:20:26.142Z,12.11
2023-01-17T14:22:56.006Z,12.19
2023-01-17T14:25:38.249Z,11.91
2023-01-17T14:28:19.337Z,11.34
2023-01-17T14:30:48.956Z,10.81
2023-01-17T14:33:19.678Z,10.43
2023-01-17T14:35:58.090Z,10.08
2023-01-17T14:38:34.547Z,9.75
2023-01-17T14:41:04.638Z,9.73
2023-01-17T14:43:34.936Z,9.65
2023-01-17T14:46:04.535Z,9.59
2023-01-17T14:48:32.670Z,9.53
2023-01-17T14:51:01.282Z,9.37
2023-01-17T14:53:33.326Z,8.91
2023-01-17T14:56:02.893Z,8.54
2023-01-17T14:58:34.738Z,8.40
2023-01-17T15:01:09.655Z,8.23
2023-01-17T15:03:46.775Z,8.08
2023-01-17T15:06:25.926Z,7.96
2023-01-17T15:08:54.197Z,7.87
2023-01-17T15:11:26.614Z,7.93
2023-01-17T15:13:57.565Z,8.04
2023-01-17T15:16:44.361Z,8.07
2023-01-17T15:19:14.155Z,8.00
2023-01-17T15:21:43.536Z,7.89
2023-01-17T15:24:20.669Z,7.81
2023-01-17T15:26:49.277Z,7.91
2023-01-17T15:29:24.099Z,7.99
2023-01-17T15:31:59.263Z,8.09
2023-01-17T15:34:30.359Z,8.14
2023-01-17T15:36:59.690Z,8.23
2023-01-17T15:39:33.775Z,8.33
2023-01-17T15:42:03.585Z,8.46
2023-01-17T15:44:47.120Z,8.56
2023-01-17T15:47:33.149Z,8.56
2023-01-17T15:50:02.753Z,8.71
2023-01-17T15:52:31.065Z,8.81
2023-01-17T15:55:00.029Z,8.94
2023-01-17T15:57:38.241Z,9.05
2023-01-17T16:00:07.843Z,9.13
2023-01-17T16:02:44.430Z,9.23
2023-01-17T16:05:22.582Z,9.35
2023-01-17T16:07:52.393Z,9.31
2023-01-17T16:10:25.201Z,9.32
2023-01-17T16:12:54.201Z,9.27
2023-01-17T16:15:25.647Z,9.23
2023-01-17T16:17:56.464Z,9.26
2023-01-17T16:20:28.353Z,9.43
2023-01-17T16:22:56.625Z,9.47
2023-01-17T16:25:25.005Z,9.51
2023-01-17T16:27:54.174Z,9.59
2023-01-17T16:30:22.631Z,9.66
2023-01-17T16:32:51.356Z,9.78
2023-01-17T16:35:21.035Z,9.92
2023-01-17T16:37:53.320Z,9.99
2023-01-17T16:40:22.643Z,9.94
2023-01-17T16:42:51.172Z,9.97
2023-01-17T16:45:19.393Z,10.04
2023-01-17T16:47:48.117Z,10.16
2023-01-17T16:50:17.734Z,10.22
2023-01-17T16:52:45.619Z,10.06
2023-01-17T16:55:14.945Z,9.79
2023-01-17T16:57:43.163Z,9.70
2023-01-17T17:00:12.444Z,9.66
2023-01-17T17:02:40.853Z,9.69
2023-01-17T17:05:09.643Z,9.80
2023-01-17T17:07:43.017Z,9.89
2023-01-17T17:10:12.441Z,9.46
2023-01-17T17:12:41.223Z,8.93
2023-01-17T17:15:10.526Z,8.55
2023-01-17T17:17:39.738Z,8.38
2023-01-17T17:20:11.731Z,8.47
2023-01-17T17:22:44.192Z,8.56
2023-01-17T17:25:12.831Z,8.53
2023-01-17T17:27:41.264Z,8.35
2023-01-17T17:30:10.468Z,8.18
2023-01-17T17:32:38.532Z,8.21
2023-01-17T17:35:07.059Z,8.25
2023-01-17T17:37:34.994Z,8.29
2023-01-17T17:40:04.384Z,8.31
2023-01-17T17:42:32.533Z,8.35
2023-01-17T17:45:00.564Z,8.48
2023-01-17T17:47:30.581Z,8.68
2023-01-17T17:49:58.825Z,8.93
2023-01-17T17:52:28.217Z,9.17
2023-01-17T17:54:57.521Z,9.33
2023-01-17T17:57:25.824Z,9.47
2023-01-17T17:59:56.854Z,9.51
2023-01-17T18:02:24.743Z,9.52
2023-01-17T18:04:52.906Z,9.50
2023-01-17T18:07:21.246Z,9.49
2023-01-17T18:09:49.318Z,9.39
2023-01-17T18:12:17.405Z,9.24
2023-01-17T18:14:45.399Z,9.22
2023-01-17T18:17:15.374Z,8.93
2023-01-17T18:19:46.141Z,8.85
2023-01-17T18:22:14.032Z,8.81
2023-01-17T18:24:41.937Z,8.85
2023-01-17T18:27:10.726Z,8.96
2023-01-17T18:29:39.108Z,8.97
2023-01-17T18:32:07.175Z,9.00
2023-01-17T18:34:35.815Z,9.03
2023-01-17T18:37:03.833Z,8.83
2023-01-17T18:39:31.807Z,8.73
2023-01-17T18:41:59.797Z,8.64
2023-01-17T18:44:27.954Z,8.67
2023-01-17T18:46:58.257Z,8.79
2023-01-17T18:49:26.438Z,8.84
2023-01-17T18:51:54.345Z,8.85
2023-01-17T18:54:22.366Z,8.84
2023-01-17T18:56:51.219Z,8.82
2023-01-17T18:59:19.750Z,8.80
2023-01-17T19:01:48.179Z,8.80
2023-01-17T19:04:17.420Z,8.86
2023-01-17T19:06:46.965Z,8.90
2023-01-17T19:09:15.918Z,8.94
2023-01-17T19:11:45.205Z,8.97
2023-01-17T19:14:13.279Z,8.87
2023-01-17T19:16:41.910Z,8.79
2023-01-17T19:19:11.676Z,8.71
2023-01-17T19:21:39.975Z,8.70
2023-01-17T19:24:08.191Z,8.72
2023-01-17T19:26:36.136Z,8.63
2023-01-17T19:29:05.339Z,8.55
2023-01-17T19:31:37.200Z,8.52
2023-01-17T19:34:05.360Z,8.57
2023-01-17T19:36:34.503Z,8.61
2023-01-17T19:39:05.878Z,8.67
2023-01-17T19:41:35.610Z,8.65
2023-01-17T19:44:05.334Z,8.64
2023-01-17T19:46:33.512Z,8.70
2023-01-17T19:49:01.933Z,8.74
2023-01-17T19:51:30.213Z,8.80
2023-01-17T19:54:01.963Z,8.86
2023-01-17T19:56:30.456Z,8.95
2023-01-17T19:59:01.654Z,8.98
2023-01-17T20:01:31.916Z,8.89
2023-01-17T20:04:01.119Z,8.83
2023-01-17T20:06:30.924Z,8.79
2023-01-17T20:08:59.514Z,8.76
2023-01-17T20:11:28.239Z,8.71
2023-01-17T20:13:57.335Z,8.74
2023-01-17T20:16:26.209Z,8.76
2023-01-17T20:18:54.318Z,8.77
2023-01-17T20:21:23.333Z,8.65
2023-01-17T20:23:52.122Z,8.53
2023-01-17T20:26:21.846Z,8.55
2023-01-17T20:28:51.569Z,8.60
2023-01-17T20:31:21.197Z,8.61
2023-01-17T20:33:50.503Z,8.58
2023-01-17T20:36:20.050Z,8.56
2023-01-17T20:38:48.775Z,8.51
2023-01-17T20:41:16.911Z,8.51
2023-01-17T20:43:46.111Z,8.52
2023-01-17T20:46:14.652Z,8.54
2023-01-17T20:48:52.709Z,8.53
2023-01-17T20:51:21.381Z,8.58
2023-01-17T20:53:53.498Z,8.60
2023-01-17T20:56:21.889Z,8.62
2023-01-17T20:58:52.409Z,8.72
2023-01-17T21:01:21.451Z,8.78
2023-01-17T21:03:51.741Z,8.82
2023-01-17T21:06:20.962Z,8.76
2023-01-17T21:08:49.479Z,8.66
2023-01-17T21:11:19.460Z,8.56
2023-01-17T21:13:48.894Z,8.48
2023-01-17T21:16:17.970Z,8.35
2023-01-17T21:18:47.786Z,8.22
2023-01-17T21:21:21.948Z,8.06
2023-01-17T21:23:50.866Z,8.00
2023-01-17T21:26:20.582Z,8.00
2023-01-17T21:28:49.479Z,7.95
2023-01-17T21:31:23.054Z,7.95
2023-01-17T21:33:53.086Z,7.96
2023-01-17T21:36:21.866Z,7.91
2023-01-17T21:38:52.609Z,7.93
2023-01-17T21:41:22.005Z,7.93
2023-01-17T21:43:54.690Z,7.98
2023-01-17T21:46:23.203Z,8.09
2023-01-17T21:48:51.260Z,8.18
2023-01-17T21:51:22.620Z,8.19
2023-01-17T21:53:50.653Z,8.16
2023-01-17T21:56:37.423Z,8.15
2023-01-17T21:59:05.629Z,8.19
2023-01-17T22:01:33.684Z,8.22
2023-01-17T22:04:03.041Z,8.19
2023-01-17T22:06:32.632Z,8.21
2023-01-17T22:09:00.559Z,8.22
2023-01-17T22:11:30.543Z,8.26
2023-01-17T22:13:59.509Z,8.29
2023-01-17T22:16:27.764Z,8.28
2023-01-17T22:18:55.830Z,8.33
2023-01-17T22:21:25.194Z,8.37
2023-01-17T22:23:54.398Z,8.38
2023-01-17T22:26:23.732Z,8.36
2023-01-17T22:28:52.571Z,8.36
2023-01-17T22:31:22.987Z,8.41
2023-01-17T22:33:58.551Z,8.46
2023-01-17T22:36:26.906Z,8.59
2023-01-17T22:38:55.752Z,8.69
2023-01-17T22:41:25.468Z,8.85
2023-01-17T22:43:55.604Z,9.01
2023-01-17T22:46:26.378Z,9.09
2023-01-17T22:48:55.406Z,9.16
2023-01-17T22:51:24.878Z,9.14
2023-01-17T22:53:54.688Z,9.14
2023-01-17T22:56:24.075Z,9.18
2023-01-17T22:58:52.964Z,9.24
2023-01-17T23:01:22.367Z,9.24
2023-01-17T23:03:52.385Z,9.15
2023-01-17T23:06:25.680Z,9.02
2023-01-17T23:08:55.024Z,9.04
2023-01-17T23:11:41.961Z,9.10
2023-01-17T23:14:09.886Z,9.20
2023-01-17T23:16:57.500Z,9.31
2023-01-17T23:19:27.443Z,9.34
2023-01-17T23:22:15.784Z,9.39
2023-01-17T23:24:45.521Z,9.37
2023-01-17T23:27:34.469Z,9.25
2023-01-17T23:30:04.690Z,9.05
2023-01-17T23:32:33.156Z,8.96
2023-01-17T23:35:01.361Z,8.84
2023-01-17T23:37:50.399Z,8.69
2023-01-17T23:40:18.628Z,8.51
2023-01-17T23:43:05.397Z,8.42
2023-01-17T23:45:37.057Z,8.48
2023-01-17T23:48:09.644Z,8.50
2023-01-17T23:50:39.319Z,8.49
2023-01-17T23:53:08.654Z,8.46
2023-01-17T23:55:38.863Z,8.51
2023-01-17T23:58:07.953Z,8.61
